Coeur d'Alene, ID (83814)

03:47 PM PST del 26 Febbraio 2017 (GMT -0800)
E Elm Ave | | Change Station

Alt. 2195 ft 47.68 °N, 116.77 °W | Updated 6 seconds ago

Neve
Neve
33.1 °F
Sembra 33 °F
N
0.0
Vento Variabile Vento da Sud
Gusts 0.0 mph

Oggi
Massima -- | Minima -- °F
--% Possibilità di precip.
Ieri
Massima -- | Minima -- °F
Precip. -- in
Pressione 29.65 in
Visibilità 9.0 miglia
Nuvole Molto nuvoloso 2400 ft
Coperto 3000 ft
Raffreddamento del vento 33 °F
Punto di rugiada 25 °F
Umidità 73%
Piovosità 0.11 in
Spessore del manto nevoso Non disponibile.
6:32 AM 5:27 PM
Luna nuova, 0% visible
SPECI KCOE 262336Z AUTO 31003KT 9SM UP BKN024 OVC030 M01/M03 A2965 RMK AO2 UPB12 P0000 FZRANO
Pressione 29.65 in
Visibilità 9.0 miglia
Nuvole Molto nuvoloso 2400 ft
Coperto 3000 ft
Raffreddamento del vento 33 °F
Punto di rugiada 25 °F
Umidità 73%
Piovosità 0.11 in
Spessore del manto nevoso Non disponibile.
6:32 AM 5:27 PM
Luna nuova, 0% visible
SPECI KCOE 262336Z AUTO 31003KT 9SM UP BKN024 OVC030 M01/M03 A2965 RMK AO2 UPB12 P0000 FZRANO

Get Your Daily Forecast Email!

Thanks for signing up!

Be on the lookout for a verification email in your inbox.

You'll start receiving the daily forecast at 8 AM.

×

10-Day Weather Forecast

Almanac

Astronomia

Feb. 26, 2017 Alba Tramonto
Ora attuale
Crepuscolo civile
Crepuscolo nautico
Crepuscolo astronomico
Luna
Estensione della luce visibile
Lunghezza del giorno
Tomorrow will be .
, % of the Moon is Illuminated

Gli estremi di oggi

State Highs State Lows

Community

WunderPhotos

Upload Photos

1,962,540 foto caricate!

WunderBlog® & News

Nearby

Qualità dell'aria

  Qualità dell'aria Indice AQ Inquinante
Not available.

Profondità neve

Stazione Profondità Altitudine

Attività sismica

Città  Distanza Mag. Data & Ora
Minimo Magnitudo Mostrato è 2.5.

Temperature delle acque costiere

Località Temperatura

Stations

Stazioni meteo nelle vicinanze

Ubicazione della stazione Temp. Raffreddamento del vento Punto di rugiada Umidità Vento Precip. Alt. Aggiornato Tipo
                   

Watches & Warnings

There are currently no watches in effect.